Time;durP1;ratioP1;P1;durP2;ratioP2;P2;SDS_P1;SDS_P2;PMS_P1;PMS_P2;Temp;Humidity;BMP_temperature;BMP_pressure;BME280_temperature;BME280_humidity;BME280_pressure;Samples;Min_cycle;Max_cycle;Signal;HPM_P1;HPM_P2
2023/03/28 00:00:32;;;;;;;0.55;0.10;;;;;;;4.75;56.60;100843.88;5025169;28;20033;-72
2023/03/28 00:02:58;;;;;;;2.20;0.20;;;;;;;4.66;56.93;100853.06;5015679;28;20096;-73
2023/03/28 00:05:23;;;;;;;1.75;0.10;;;;;;;4.72;54.75;100842.34;5014414;28;20041;-73
2023/03/28 00:07:52;;;;;;;0.10;0.00;;;;;;;4.96;54.44;100850.25;5022987;28;20029;-73
2023/03/28 00:10:18;;;;;;;0.20;0.00;;;;;;;4.89;55.19;100854.16;5031275;28;20537;-73
2023/03/28 00:12:44;;;;;;;0.35;0.00;;;;;;;4.89;53.73;100856.75;5027398;28;20033;-73
2023/03/28 00:15:10;;;;;;;0.40;0.00;;;;;;;4.89;54.87;100862.72;5026684;28;20028;-73
2023/03/28 00:17:36;;;;;;;1.55;0.10;;;;;;;4.81;55.22;100869.31;5031128;28;20464;-73
2023/03/28 00:20:03;;;;;;;0.20;0.10;;;;;;;4.82;55.38;100873.53;5025084;28;20052;-73
2023/03/28 00:22:29;;;;;;;0.20;0.00;;;;;;;4.68;55.46;100874.44;5025951;28;20456;-73
2023/03/28 00:24:57;;;;;;;0.40;0.10;;;;;;;5.05;52.60;100875.50;5026000;28;20029;-72
2023/03/28 00:27:23;;;;;;;0.43;0.10;;;;;;;5.15;53.33;100867.97;5028410;28;20033;-72
2023/03/28 00:29:49;;;;;;;0.20;0.00;;;;;;;5.16;53.21;100872.22;5028495;28;20034;-72
2023/03/28 00:32:15;;;;;;;0.30;0.00;;;;;;;5.09;53.38;100871.78;5027132;28;20042;-72
2023/03/28 00:34:40;;;;;;;0.50;0.03;;;;;;;4.96;53.35;100879.50;5035887;28;20124;-72
2023/03/28 00:37:06;;;;;;;0.13;0.00;;;;;;;4.89;54.64;100875.63;5026783;28;20490;-72
2023/03/28 00:39:31;;;;;;;0.52;0.08;;;;;;;4.75;56.89;100880.00;5030976;28;20446;-72
2023/03/28 00:42:00;;;;;;;0.20;0.10;;;;;;;4.51;58.86;100879.81;5032763;28;20398;-73
2023/03/28 00:44:52;;;;;;;0.45;0.00;;;;;;;4.19;60.70;100885.22;5031840;28;20112;-73
2023/03/28 00:47:26;;;;;;;0.95;0.10;;;;;;;3.99;62.11;100883.00;5033133;28;20038;-73
2023/03/28 00:50:04;;;;;;;0.40;0.00;;;;;;;3.79;63.73;100896.25;5039611;28;20390;-73
2023/03/28 00:52:38;;;;;;;1.02;0.32;;;;;;;3.59;65.28;100894.88;5038223;28;20116;-73
2023/03/28 00:55:08;;;;;;;0.55;0.10;;;;;;;3.44;65.82;100898.31;5018134;28;20084;-73
2023/03/28 00:57:37;;;;;;;0.10;0.00;;;;;;;3.33;65.93;100898.94;5024783;28;20030;-73
2023/03/28 01:00:11;;;;;;;1.30;0.08;;;;;;;3.32;67.27;100902.41;5024864;28;20025;-73
2023/03/28 01:02:40;;;;;;;0.22;0.10;;;;;;;3.27;66.70;100904.47;5034877;28;20041;-73
2023/03/28 01:05:07;;;;;;;1.00;0.10;;;;;;;3.25;67.31;100914.84;5029430;28;20418;-73
2023/03/28 01:07:40;;;;;;;0.45;0.00;;;;;;;3.21;66.98;100921.09;5030564;28;20029;-73
2023/03/28 01:10:06;;;;;;;0.35;0.08;;;;;;;3.23;67.16;100914.09;5032636;28;20052;-73
2023/03/28 01:12:33;;;;;;;0.60;0.10;;;;;;;3.15;68.07;100921.44;5029498;28;21554;-73
2023/03/28 01:15:00;;;;;;;0.45;0.00;;;;;;;3.13;68.33;100925.84;5024285;28;20068;-73
2023/03/28 01:17:26;;;;;;;0.22;0.00;;;;;;;3.09;69.07;100934.63;5017580;28;20037;-72
2023/03/28 01:20:31;;;;;;;1.17;0.10;;;;;;;2.99;67.86;100931.75;5032202;28;20063;-72
2023/03/28 01:23:30;;;;;;;0.30;0.08;;;;;;;3.20;66.10;100934.03;5023255;28;20207;-72
2023/03/28 01:26:32;;;;;;;1.10;0.25;;;;;;;3.39;64.82;100926.09;4993993;28;20045;-72
2023/03/28 01:28:57;;;;;;;0.40;0.10;;;;;;;3.32;66.40;100928.19;5018650;28;20127;-73
2023/03/28 01:31:42;;;;;;;0.82;0.10;;;;;;;3.36;63.97;100934.00;5021844;28;20033;-73
2023/03/28 01:34:10;;;;;;;1.10;0.68;;;;;;;3.46;62.33;100946.25;5017389;28;20232;-73
2023/03/28 01:36:39;;;;;;;1.90;1.23;;;;;;;3.47;63.19;100934.22;5022922;28;20494;-73
2023/03/28 01:39:11;;;;;;;1.55;0.77;;;;;;;3.44;64.30;100944.69;5015127;28;20048;-72
2023/03/28 01:41:46;;;;;;;1.40;0.60;;;;;;;3.29;66.39;100956.72;5021049;28;20395;-72
2023/03/28 01:44:39;;;;;;;1.85;0.40;;;;;;;3.04;68.01;100952.09;5029524;28;20041;-72
2023/03/28 01:47:35;;;;;;;2.30;0.20;;;;;;;2.81;70.34;100958.50;5026295;28;20032;-73
2023/03/28 01:50:10;;;;;;;0.80;0.30;;;;;;;2.69;71.46;100956.59;5015004;28;20103;-72
2023/03/28 01:53:04;;;;;;;4.22;0.30;;;;;;;2.71;71.35;100962.47;5022488;28;20025;-72
2023/03/28 01:55:47;;;;;;;0.30;0.13;;;;;;;2.59;73.16;100953.66;5006133;28;20471;-72
2023/03/28 01:58:16;;;;;;;1.08;0.28;;;;;;;2.47;74.27;100956.88;5023193;28;20129;-72
2023/03/28 02:00:53;;;;;;;2.15;0.40;;;;;;;2.35;75.57;100967.00;5019016;28;20128;-72
2023/03/28 02:03:32;;;;;;;1.10;0.30;;;;;;;2.24;77.55;100957.28;5026088;28;20045;-73
2023/03/28 02:05:59;;;;;;;1.95;0.30;;;;;;;2.14;77.86;100963.78;5021520;28;20038;-73
2023/03/28 02:08:31;;;;;;;0.88;0.30;;;;;;;2.03;77.69;100963.50;5026273;28;20071;-73
2023/03/28 02:10:57;;;;;;;0.60;0.30;;;;;;;2.11;77.13;100964.78;5026836;28;20033;-72
2023/03/28 02:13:35;;;;;;;0.73;0.32;;;;;;;2.07;78.26;100963.28;5022452;28;20067;-72
2023/03/28 02:16:03;;;;;;;1.17;0.40;;;;;;;2.00;79.83;100970.47;5022035;28;21432;-73
2023/03/28 02:18:35;;;;;;;1.55;0.30;;;;;;;1.90;80.75;100965.84;5024717;28;20048;-72
2023/03/28 02:21:08;;;;;;;3.75;0.28;;;;;;;1.82;81.80;100968.00;5029309;28;20034;-72
2023/03/28 02:23:38;;;;;;;1.45;0.20;;;;;;;1.72;82.08;100975.34;5022846;28;20382;-72
2023/03/28 02:26:05;;;;;;;1.40;0.15;;;;;;;1.65;83.99;100979.09;5017729;28;20532;-72
2023/03/28 02:28:32;;;;;;;1.30;0.20;;;;;;;1.77;79.11;100977.69;5024953;28;20029;-72
2023/03/28 02:30:57;;;;;;;0.70;0.20;;;;;;;2.19;74.71;100970.38;5026600;28;20485;-72
2023/03/28 02:33:41;;;;;;;0.60;0.20;;;;;;;2.32;73.56;100978.28;5028897;28;20030;-72
2023/03/28 02:36:07;;;;;;;1.02;0.20;;;;;;;2.22;76.65;100985.63;5026636;28;20046;-72
2023/03/28 02:38:51;;;;;;;0.57;0.20;;;;;;;1.99;79.24;100993.66;5025695;28;20056;-72
2023/03/28 02:41:31;;;;;;;1.50;0.30;;;;;;;1.81;79.88;100992.03;5023747;28;20471;-72
2023/03/28 02:44:08;;;;;;;2.10;0.50;;;;;;;2.01;76.71;100999.56;5027887;28;20033;-72
2023/03/28 02:46:48;;;;;;;0.43;0.20;;;;;;;2.14;77.84;100992.91;5018777;28;20100;-72
2023/03/28 02:49:57;;;;;;;2.70;0.40;;;;;;;2.05;78.69;100993.38;5023025;28;20053;-72
2023/03/28 02:52:50;;;;;;;0.68;0.30;;;;;;;1.86;80.80;100992.63;5010387;28;20049;-72
2023/03/28 02:55:45;;;;;;;0.93;0.30;;;;;;;1.70;82.68;100999.44;5020276;28;20076;-72
2023/03/28 02:58:24;;;;;;;6.93;0.30;;;;;;;1.62;82.29;100999.81;5017093;28;20671;-73
2023/03/28 03:00:50;;;;;;;1.90;0.20;;;;;;;1.75;81.26;101000.03;5028818;28;20091;-73
2023/03/28 03:03:16;;;;;;;1.75;0.20;;;;;;;1.94;76.63;101013.63;5024452;28;20045;-72
2023/03/28 03:05:42;;;;;;;1.10;0.50;;;;;;;2.18;75.56;101009.00;5026133;28;20038;-73
2023/03/28 03:08:07;;;;;;;0.50;0.20;;;;;;;2.19;76.66;101008.09;5025943;28;20366;-73
2023/03/28 03:10:33;;;;;;;1.48;0.20;;;;;;;2.06;75.60;101018.16;5023856;28;20053;-73
2023/03/28 03:12:58;;;;;;;0.60;0.20;;;;;;;2.10;74.26;101017.09;5024799;28;20052;-72
2023/03/28 03:15:24;;;;;;;0.25;0.10;;;;;;;2.19;71.40;101023.53;5023163;28;20030;-72
2023/03/28 03:17:51;;;;;;;0.40;0.25;;;;;;;2.24;72.33;101027.53;5016280;28;20118;-72
2023/03/28 03:20:17;;;;;;;2.90;0.20;;;;;;;2.18;71.63;101024.44;5010380;28;20084;-72
2023/03/28 03:22:43;;;;;;;0.55;0.20;;;;;;;2.11;71.60;101018.75;5015088;28;20025;-72
2023/03/28 03:25:09;;;;;;;0.98;0.30;;;;;;;2.11;71.87;101028.22;5019870;28;20040;-73
2023/03/28 03:27:36;;;;;;;2.22;0.50;;;;;;;2.15;71.59;101029.72;5030558;28;20030;-72
2023/03/28 03:30:03;;;;;;;2.35;0.50;;;;;;;2.22;71.67;101031.09;5027267;28;20040;-72
2023/03/28 03:32:29;;;;;;;0.68;0.20;;;;;;;2.21;71.03;101030.25;5032402;28;20026;-72
2023/03/28 03:34:54;;;;;;;0.50;0.10;;;;;;;2.27;69.00;101029.09;5019087;28;20040;-72
2023/03/28 03:37:20;;;;;;;0.77;0.10;;;;;;;2.36;67.62;101031.22;5014866;28;20443;-72
2023/03/28 03:39:46;;;;;;;0.30;0.00;;;;;;;2.46;66.66;101032.38;5020481;28;20037;-72
2023/03/28 03:42:11;;;;;;;1.50;0.10;;;;;;;2.53;66.49;101036.31;5013126;28;20038;-72
2023/03/28 03:44:37;;;;;;;2.03;0.10;;;;;;;2.63;66.42;101036.66;5016906;28;20044;-72
2023/03/28 03:47:03;;;;;;;0.40;0.10;;;;;;;2.68;65.45;101039.81;5021448;28;20034;-72
2023/03/28 03:49:28;;;;;;;0.40;0.10;;;;;;;2.67;65.43;101038.16;5013755;28;20037;-72
2023/03/28 03:51:54;;;;;;;0.77;0.10;;;;;;;2.65;65.32;101052.84;5013198;28;20137;-72
2023/03/28 03:54:19;;;;;;;1.13;0.32;;;;;;;2.65;66.03;101052.84;5021073;28;20482;-73
2023/03/28 03:56:45;;;;;;;3.53;0.80;;;;;;;2.58;62.62;101042.03;5013395;28;20549;-73
2023/03/28 03:59:10;;;;;;;2.50;0.60;;;;;;;2.53;64.35;101048.34;5019016;28;20561;-72
2023/03/28 04:01:38;;;;;;;4.57;0.60;;;;;;;2.41;64.55;101046.38;5012679;28;20034;-72
2023/03/28 04:04:06;;;;;;;2.53;0.30;;;;;;;2.26;66.82;101045.44;5015895;28;20049;-72
2023/03/28 04:06:31;;;;;;;1.83;0.47;;;;;;;2.18;66.38;101052.72;5013754;28;20394;-72
2023/03/28 04:08:57;;;;;;;2.95;0.40;;;;;;;2.18;66.12;101048.41;5029932;28;20040;-72
2023/03/28 04:11:22;;;;;;;3.00;0.50;;;;;;;2.23;66.03;101054.16;5013108;28;20403;-72
2023/03/28 04:13:47;;;;;;;6.90;2.05;;;;;;;2.23;66.44;101051.56;5012883;28;20030;-72
2023/03/28 04:16:14;;;;;;;9.43;1.90;;;;;;;2.23;65.69;101054.16;5019563;28;20037;-70
2023/03/28 04:18:40;;;;;;;4.10;0.73;;;;;;;2.27;65.94;101063.38;5018866;28;20034;-72
2023/03/28 04:21:08;;;;;;;5.75;0.90;;;;;;;2.26;66.12;101064.28;5016657;28;20059;-72
2023/03/28 04:23:37;;;;;;;2.53;0.40;;;;;;;2.25;65.86;101072.06;5020304;28;20033;-72
2023/03/28 04:26:03;;;;;;;1.77;0.10;;;;;;;2.35;62.25;101069.88;5024554;28;20111;-72
2023/03/28 04:28:28;;;;;;;0.73;0.20;;;;;;;2.33;64.71;101069.94;5030024;28;20100;-72
2023/03/28 04:30:58;;;;;;;4.07;0.70;;;;;;;2.08;67.74;101069.50;5025612;28;20033;-72
2023/03/28 04:33:25;;;;;;;9.50;1.00;;;;;;;1.88;70.54;101075.63;5021333;28;20053;-72
2023/03/28 04:35:56;;;;;;;2.72;0.82;;;;;;;1.68;72.60;101076.56;5022976;28;20030;-72
2023/03/28 04:38:30;;;;;;;1.70;0.40;;;;;;;1.75;68.89;101085.66;5023093;28;20091;-72
2023/03/28 04:40:57;;;;;;;5.25;0.30;;;;;;;1.89;69.27;101090.13;5018491;28;20113;-72
2023/03/28 04:43:30;;;;;;;1.13;0.20;;;;;;;1.96;66.82;101086.34;5029157;28;20112;-72
2023/03/28 04:45:56;;;;;;;4.90;0.30;;;;;;;2.02;68.47;101101.47;5022666;28;20054;-72
2023/03/28 04:48:23;;;;;;;1.35;0.50;;;;;;;1.99;68.97;101102.44;5019736;28;20029;-76
2023/03/28 04:50:49;;;;;;;5.05;0.30;;;;;;;2.04;68.02;101104.78;5020597;28;20076;-72
2023/03/28 04:53:15;;;;;;;2.63;0.50;;;;;;;2.01;67.64;101102.38;5024112;28;20546;-72
2023/03/28 04:55:42;;;;;;;4.22;0.30;;;;;;;1.98;66.53;101107.66;5026219;28;20117;-72
2023/03/28 04:58:09;;;;;;;6.35;0.47;;;;;;;2.08;66.53;101106.31;5021316;28;20030;-72
2023/03/28 05:00:35;;;;;;;4.25;0.40;;;;;;;2.13;66.32;101109.50;5027739;28;20423;-72
2023/03/28 05:03:04;;;;;;;5.35;0.30;;;;;;;2.12;64.54;101118.09;5019262;28;20025;-72
2023/03/28 05:05:30;;;;;;;2.70;0.20;;;;;;;2.11;64.30;101119.00;5022411;28;20037;-72
2023/03/28 05:07:59;;;;;;;2.17;0.20;;;;;;;2.13;64.66;101114.63;5019247;28;20084;-72
2023/03/28 05:10:25;;;;;;;4.90;0.20;;;;;;;2.09;65.17;101120.00;5025521;28;21649;-72
2023/03/28 05:12:50;;;;;;;2.20;0.30;;;;;;;2.09;65.23;101122.56;5025236;28;20050;-72
2023/03/28 05:15:16;;;;;;;2.10;1.00;;;;;;;1.95;68.09;101136.91;5019853;28;20063;-72
2023/03/28 05:17:41;;;;;;;2.42;0.77;;;;;;;1.65;71.08;101139.19;5019889;28;20285;-72
2023/03/28 05:20:08;;;;;;;3.90;0.63;;;;;;;1.53;73.75;101141.50;5022079;28;20033;-72
2023/03/28 05:22:35;;;;;;;2.83;0.77;;;;;;;1.42;75.35;101144.53;5024154;28;20025;-72
2023/03/28 05:25:00;;;;;;;5.72;1.27;;;;;;;1.37;76.60;101151.66;5024963;28;20084;-72
2023/03/28 05:27:26;;;;;;;2.13;0.90;;;;;;;1.21;77.00;101158.38;5024745;28;20030;-72
2023/03/28 05:29:51;;;;;;;2.42;1.30;;;;;;;1.13;77.98;101163.00;5021887;28;20025;-73
2023/03/28 05:32:17;;;;;;;4.78;1.25;;;;;;;1.19;77.43;101160.16;5023858;28;20727;-72
2023/03/28 05:34:42;;;;;;;4.47;0.40;;;;;;;1.35;75.98;101165.47;5024422;28;20037;-72
2023/03/28 05:37:08;;;;;;;2.15;0.73;;;;;;;1.56;73.14;101167.88;5021611;28;20118;-72
2023/03/28 05:39:33;;;;;;;1.52;0.32;;;;;;;1.67;71.79;101165.66;5024625;28;20032;-73
2023/03/28 05:41:59;;;;;;;4.55;0.50;;;;;;;1.80;72.94;101175.38;5024097;28;20037;-73
2023/03/28 05:44:24;;;;;;;3.30;0.75;;;;;;;1.89;72.31;101174.94;5024337;28;20033;-73
2023/03/28 05:46:50;;;;;;;3.05;0.60;;;;;;;1.91;73.17;101185.94;5022137;28;20108;-73
2023/03/28 05:49:15;;;;;;;3.10;0.70;;;;;;;2.02;74.24;101188.84;5015864;28;20116;-73
2023/03/28 05:51:41;;;;;;;4.35;1.60;;;;;;;2.09;75.09;101190.22;5021991;28;20073;-73
2023/03/28 05:54:06;;;;;;;3.70;1.38;;;;;;;2.19;75.85;101188.91;5016885;28;20102;-74
2023/03/28 05:56:34;;;;;;;3.15;1.50;;;;;;;2.26;75.64;101187.69;5026100;28;20433;-73
2023/03/28 05:59:00;;;;;;;4.30;1.30;;;;;;;2.30;76.88;101194.38;5024430;28;20038;-73
2023/03/28 06:01:27;;;;;;;10.30;1.48;;;;;;;2.28;75.05;101196.16;5024404;28;20116;-73
2023/03/28 06:03:53;;;;;;;6.05;1.33;;;;;;;2.40;73.72;101199.03;5023161;28;20060;-73
2023/03/28 06:06:19;;;;;;;2.42;0.40;;;;;;;2.66;69.42;101198.59;5021670;28;20045;-73
2023/03/28 06:08:45;;;;;;;1.38;0.40;;;;;;;2.90;66.76;101212.78;5028503;28;20022;-73
2023/03/28 06:11:11;;;;;;;2.10;0.20;;;;;;;3.09;65.46;101204.97;5028883;28;20045;-73
2023/03/28 06:13:37;;;;;;;3.28;0.28;;;;;;;3.28;65.16;101213.44;5027331;28;20443;-73
2023/03/28 06:16:02;;;;;;;3.17;0.55;;;;;;;3.35;62.70;101221.66;5020978;28;20125;-74
2023/03/28 06:18:28;;;;;;;4.25;0.50;;;;;;;3.48;63.70;101222.66;5024510;28;20044;-73
2023/03/28 06:20:53;;;;;;;0.85;0.20;;;;;;;3.60;63.04;101218.63;5024427;28;20068;-73
2023/03/28 06:23:19;;;;;;;1.63;0.30;;;;;;;3.65;62.96;101221.78;5026801;28;20129;-73
2023/03/28 06:25:45;;;;;;;1.88;0.22;;;;;;;3.69;62.35;101230.19;5028167;28;20033;-72
2023/03/28 06:28:10;;;;;;;1.80;0.40;;;;;;;3.75;59.71;101230.69;5026730;28;20033;-72
2023/03/28 06:30:38;;;;;;;5.72;0.55;;;;;;;3.86;61.34;101230.09;5024745;28;20032;-72
2023/03/28 06:33:05;;;;;;;1.70;0.40;;;;;;;3.94;60.77;101233.09;5015772;28;20096;-72
2023/03/28 06:35:31;;;;;;;2.03;0.20;;;;;;;4.11;61.02;101230.44;5010661;28;20033;-72
2023/03/28 06:37:57;;;;;;;3.58;0.30;;;;;;;4.47;61.01;101239.59;5021041;28;20337;-72
2023/03/28 06:40:22;;;;;;;4.40;0.52;;;;;;;4.71;60.24;101233.06;5031765;28;20048;-72
2023/03/28 06:42:48;;;;;;;2.38;0.63;;;;;;;4.95;60.70;101241.13;5029668;28;20041;-73
2023/03/28 06:45:14;;;;;;;3.22;0.20;;;;;;;5.18;57.62;101242.34;5028414;28;20036;-72
2023/03/28 06:47:39;;;;;;;2.40;0.25;;;;;;;5.48;58.09;101239.66;5027509;28;20032;-72
2023/03/28 06:50:06;;;;;;;1.58;0.20;;;;;;;5.53;56.68;101253.16;5028007;28;20033;-72
2023/03/28 06:52:31;;;;;;;2.70;0.45;;;;;;;5.84;58.99;101250.34;5037905;28;20067;-72
2023/03/28 06:54:57;;;;;;;4.10;0.50;;;;;;;6.10;59.00;101258.28;5029855;28;20061;-72
2023/03/28 06:57:23;;;;;;;3.05;1.17;;;;;;;6.02;57.66;101261.34;5024427;28;20044;-72
2023/03/28 06:59:50;;;;;;;6.65;1.05;;;;;;;5.80;58.12;101260.97;5011803;28;20113;-72
2023/03/28 07:02:16;;;;;;;2.72;0.50;;;;;;;5.88;57.30;101263.91;5032123;28;20045;-72
2023/03/28 07:04:42;;;;;;;2.05;0.20;;;;;;;6.05;55.55;101255.13;5014710;28;20583;-71
2023/03/28 07:07:08;;;;;;;1.45;0.30;;;;;;;6.05;55.16;101265.47;5015326;28;20044;-71
2023/03/28 07:09:34;;;;;;;2.75;0.40;;;;;;;6.08;53.80;101258.38;5016563;28;20095;-70
2023/03/28 07:12:00;;;;;;;2.50;0.60;;;;;;;6.22;53.23;101268.66;5020513;28;20125;-71
2023/03/28 07:14:25;;;;;;;3.97;0.25;;;;;;;6.26;53.69;101259.78;5015874;28;20128;-71
2023/03/28 07:16:50;;;;;;;1.38;0.30;;;;;;;6.66;54.09;101273.56;5015657;28;20483;-71
2023/03/28 07:19:16;;;;;;;7.03;0.40;;;;;;;7.00;53.95;101271.34;5022572;28;20411;-72
2023/03/28 07:21:42;;;;;;;2.45;0.40;;;;;;;7.28;52.35;101270.31;5018847;28;20040;-72
2023/03/28 07:24:07;;;;;;;2.67;0.40;;;;;;;8.11;52.63;101275.78;5022125;28;20125;-72
2023/03/28 07:26:33;;;;;;;2.83;0.40;;;;;;;9.22;51.32;101273.63;5019819;28;20040;-71
2023/03/28 07:28:58;;;;;;;1.05;0.43;;;;;;;9.46;50.60;101265.72;5022834;28;20437;-71
2023/03/28 07:31:24;;;;;;;1.95;0.55;;;;;;;9.71;49.88;101267.25;5021761;28;20037;-72
2023/03/28 07:33:50;;;;;;;3.92;0.70;;;;;;;9.87;49.80;101266.91;5022538;28;20033;-72
2023/03/28 07:36:19;;;;;;;1.30;0.40;;;;;;;10.18;50.25;101266.09;5021312;28;20030;-71
2023/03/28 07:38:46;;;;;;;4.93;0.65;;;;;;;9.99;50.46;101276.31;5021479;28;20179;-72
2023/03/28 07:41:11;;;;;;;0.98;0.30;;;;;;;9.57;49.79;101280.50;5020226;28;20414;-72
2023/03/28 07:43:38;;;;;;;1.15;0.28;;;;;;;9.46;50.38;101275.28;5022750;28;20033;-72
2023/03/28 07:46:07;;;;;;;5.03;0.40;;;;;;;9.72;51.00;101276.72;5023635;28;20030;-72
2023/03/28 07:48:34;;;;;;;5.85;0.32;;;;;;;10.27;49.12;101283.63;5022116;28;20025;-72
2023/03/28 07:51:00;;;;;;;1.63;0.20;;;;;;;10.02;49.43;101278.69;5020619;28;20475;-72
2023/03/28 07:53:26;;;;;;;2.83;0.45;;;;;;;9.86;46.05;101267.84;5023326;28;20037;-73
2023/03/28 07:55:52;;;;;;;1.63;0.30;;;;;;;9.98;44.95;101280.69;5021284;28;20029;-72
2023/03/28 07:58:17;;;;;;;1.23;0.10;;;;;;;10.25;42.47;101280.31;5022432;28;20430;-72
2023/03/28 08:00:44;;;;;;;1.65;0.10;;;;;;;10.63;43.97;101276.41;5025072;28;20116;-72
2023/03/28 08:03:11;;;;;;;0.57;0.00;;;;;;;10.80;38.66;101288.88;5029036;28;20057;-72
2023/03/28 08:05:37;;;;;;;0.40;0.00;;;;;;;10.85;38.06;101288.50;5033794;28;20041;-71
2023/03/28 08:08:04;;;;;;;0.20;0.00;;;;;;;11.14;37.36;101293.91;5031060;28;20029;-72
2023/03/28 08:10:30;;;;;;;0.20;0.00;;;;;;;11.19;38.30;101291.75;5026763;28;20087;-72
2023/03/28 08:12:55;;;;;;;1.08;0.00;;;;;;;11.19;37.24;101294.34;5023148;28;20471;-73
2023/03/28 08:15:21;;;;;;;0.28;0.00;;;;;;;11.32;35.54;101300.19;5024066;28;20096;-71
2023/03/28 08:17:46;;;;;;;0.30;0.00;;;;;;;11.19;33.58;101296.97;5018971;28;20026;-72
2023/03/28 08:20:12;;;;;;;0.65;0.10;;;;;;;11.06;34.69;101291.94;5025751;28;20041;-72
2023/03/28 08:22:37;;;;;;;1.73;0.00;;;;;;;11.41;36.79;101288.97;5028263;28;20033;-72
2023/03/28 08:25:04;;;;;;;0.20;0.00;;;;;;;11.89;39.75;101299.63;5019427;28;20428;-71
2023/03/28 08:27:30;;;;;;;1.50;0.20;;;;;;;12.82;41.56;101309.66;5028109;28;20119;-72
2023/03/28 08:29:56;;;;;;;1.60;0.17;;;;;;;13.11;43.58;101300.94;5025920;28;20029;-71
2023/03/28 08:32:22;;;;;;;1.05;0.30;;;;;;;13.16;45.80;101296.16;5026393;28;20052;-71
2023/03/28 08:34:47;;;;;;;0.80;0.30;;;;;;;13.29;46.40;101296.66;5025499;28;20033;-71
2023/03/28 08:37:13;;;;;;;1.77;0.30;;;;;;;13.45;46.80;101302.13;5025082;28;20033;-72
2023/03/28 08:39:40;;;;;;;3.40;0.30;;;;;;;13.52;47.48;101297.97;5029842;28;20483;-72
2023/03/28 08:42:30;;;;;;;1.08;0.30;;;;;;;13.44;47.15;101305.72;5028133;28;20075;-72
2023/03/28 08:45:11;;;;;;;4.43;0.25;;;;;;;13.51;47.59;101306.78;5030513;28;20060;-72
2023/03/28 08:47:44;;;;;;;1.35;0.22;;;;;;;13.71;48.86;101311.94;5016608;28;20402;-72
2023/03/28 08:50:24;;;;;;;3.25;0.20;;;;;;;13.74;49.50;101306.41;5013829;28;20555;-71
2023/03/28 08:52:50;;;;;;;0.88;0.20;;;;;;;13.64;51.16;101308.28;5014698;28;20041;-71
2023/03/28 08:55:40;;;;;;;2.55;0.20;;;;;;;13.59;46.36;101301.66;5020851;28;20117;-72
2023/03/28 08:58:13;;;;;;;0.65;0.10;;;;;;;13.59;50.14;101309.53;5014828;28;20057;-72
2023/03/28 09:00:39;;;;;;;1.15;0.17;;;;;;;13.66;51.10;101308.94;5023065;28;20165;-72
2023/03/28 09:03:17;;;;;;;0.20;0.03;;;;;;;13.38;42.90;101306.28;5018321;28;20144;-72
2023/03/28 09:06:15;;;;;;;0.38;0.10;;;;;;;13.36;47.54;101307.38;5017515;28;20029;-72
2023/03/28 09:09:03;;;;;;;0.63;0.10;;;;;;;13.35;46.75;101298.72;5020585;28;20045;-72
2023/03/28 09:11:43;;;;;;;0.63;0.10;;;;;;;13.30;46.39;101295.69;5018684;28;20056;-73
2023/03/28 09:14:08;;;;;;;2.28;0.10;;;;;;;13.15;51.13;101305.75;5018966;28;20096;-73
2023/03/28 09:16:52;;;;;;;0.40;0.10;;;;;;;12.96;49.77;101319.69;5023048;28;20475;-72
2023/03/28 09:19:38;;;;;;;0.30;0.10;;;;;;;12.47;45.21;101301.53;5023842;28;20092;-71
2023/03/28 09:22:17;;;;;;;0.20;0.00;;;;;;;11.88;44.38;101303.19;5020919;28;20056;-73
2023/03/28 09:24:55;;;;;;;1.63;0.10;;;;;;;11.43;44.85;101307.94;5030509;28;20028;-73
2023/03/28 09:27:34;;;;;;;3.13;0.10;;;;;;;11.13;42.34;101305.28;5029155;28;20092;-72
2023/03/28 09:30:22;;;;;;;0.30;0.10;;;;;;;10.85;39.38;101312.81;5031530;28;20033;-72
2023/03/28 09:32:51;;;;;;;0.90;0.25;;;;;;;10.83;44.64;101319.91;5025138;28;20025;-71
2023/03/28 09:35:23;;;;;;;0.20;0.10;;;;;;;10.84;44.07;101311.16;5025699;28;20372;-72
2023/03/28 09:37:55;;;;;;;0.40;0.00;;;;;;;10.84;41.72;101311.16;5019665;28;20030;-70
2023/03/28 09:40:24;;;;;;;0.10;0.00;;;;;;;10.88;43.20;101315.13;5027499;28;20061;-70
2023/03/28 09:43:08;;;;;;;0.17;0.00;;;;;;;10.86;40.13;101324.06;5029782;28;20043;-69
2023/03/28 09:45:48;;;;;;;0.22;0.00;;;;;;;10.79;41.21;101325.50;5025095;28;20083;-70
2023/03/28 09:48:20;;;;;;;0.20;0.00;;;;;;;10.74;38.63;101319.84;5013633;28;20025;-70
2023/03/28 09:50:46;;;;;;;0.43;0.00;;;;;;;10.69;38.31;101322.00;5011575;28;20034;-71
2023/03/28 09:53:21;;;;;;;0.20;0.00;;;;;;;10.59;34.16;101316.69;5015832;28;20044;-71
2023/03/28 09:55:47;;;;;;;0.57;0.00;;;;;;;10.63;36.73;101308.50;5013587;28;20113;-71
2023/03/28 09:58:17;;;;;;;0.40;0.00;;;;;;;10.69;37.77;101320.22;5014564;28;20293;-71
2023/03/28 10:00:49;;;;;;;0.00;0.00;;;;;;;10.57;35.69;101309.00;5021120;28;20042;-72
2023/03/28 10:03:31;;;;;;;0.40;0.00;;;;;;;10.61;36.31;101307.78;5022237;28;20049;-71
2023/03/28 10:05:58;;;;;;;5.22;0.63;;;;;;;10.60;37.79;101300.94;5016017;28;20038;-71
2023/03/28 10:08:33;;;;;;;0.40;0.00;;;;;;;10.59;39.76;101301.06;5017613;28;20022;-71
2023/03/28 10:11:11;;;;;;;0.25;0.10;;;;;;;10.66;40.10;101296.16;5016958;28;20061;-70
2023/03/28 10:13:50;;;;;;;0.17;0.00;;;;;;;10.73;39.85;101300.75;5016504;28;20033;-71
2023/03/28 10:16:33;;;;;;;0.57;0.08;;;;;;;10.76;38.20;101291.88;5015236;28;20054;-70
2023/03/28 10:18:58;;;;;;;0.10;0.00;;;;;;;10.80;38.89;101288.88;5020238;28;20352;-70
2023/03/28 10:21:26;;;;;;;0.30;0.00;;;;;;;10.83;38.55;101295.63;5023540;28;20029;-70
2023/03/28 10:24:14;;;;;;;0.95;0.00;;;;;;;10.83;33.00;101296.47;5022148;28;20656;-71
2023/03/28 10:26:40;;;;;;;0.10;0.00;;;;;;;10.79;37.31;101302.88;5021656;28;20408;-70
2023/03/28 10:29:07;;;;;;;0.17;0.00;;;;;;;10.78;38.28;101300.38;5021685;28;20036;-72
2023/03/28 10:31:33;;;;;;;1.75;0.00;;;;;;;10.81;37.93;101308.78;5025555;28;20041;-71
2023/03/28 10:34:01;;;;;;;0.30;0.00;;;;;;;10.67;38.47;101298.66;5024226;28;20046;-71
2023/03/28 10:36:47;;;;;;;0.40;0.00;;;;;;;10.63;33.27;101310.28;5025904;28;20522;-71
2023/03/28 10:39:24;;;;;;;0.22;0.00;;;;;;;10.77;35.98;101304.78;5028971;28;20128;-71
2023/03/28 10:41:58;;;;;;;1.27;0.00;;;;;;;10.84;33.39;101299.91;5028661;28;20025;-71
2023/03/28 10:44:32;;;;;;;0.00;0.00;;;;;;;10.77;35.81;101291.75;5028636;28;20490;-71
2023/03/28 10:47:04;;;;;;;0.13;0.00;;;;;;;10.65;37.78;101295.34;5033113;28;20430;-71
2023/03/28 10:49:43;;;;;;;0.20;0.00;;;;;;;10.74;34.06;101293.78;5029306;28;20577;-71
2023/03/28 10:52:34;;;;;;;0.13;0.00;;;;;;;11.00;33.35;101291.59;5032010;28;20044;-70
2023/03/28 10:55:16;;;;;;;0.80;0.00;;;;;;;11.13;33.80;101294.84;5019787;28;20055;-70
2023/03/28 10:58:02;;;;;;;0.28;0.03;;;;;;;10.96;36.08;101294.47;5025190;28;20079;-70
2023/03/28 11:00:40;;;;;;;0.25;0.00;;;;;;;10.88;36.28;101293.44;5029334;28;20120;-70
2023/03/28 11:03:25;;;;;;;0.35;0.00;;;;;;;11.05;37.10;101299.88;5032061;28;20049;-70
2023/03/28 11:06:10;;;;;;;0.30;0.00;;;;;;;11.07;34.26;101300.59;5024756;28;20034;-69
2023/03/28 11:08:48;;;;;;;0.50;0.00;;;;;;;10.89;34.90;101297.72;5028163;28;20021;-69
2023/03/28 11:11:19;;;;;;;0.30;0.10;;;;;;;10.85;36.23;101297.16;5031147;28;20115;-69
2023/03/28 11:13:47;;;;;;;0.30;0.00;;;;;;;10.94;37.61;101298.16;5028649;28;20034;-70
2023/03/28 11:16:18;;;;;;;0.20;0.00;;;;;;;11.02;37.13;101287.94;5028309;28;20029;-70
2023/03/28 11:18:59;;;;;;;0.10;0.00;;;;;;;11.08;36.31;101297.03;5029334;28;20036;-68
2023/03/28 11:21:27;;;;;;;0.00;0.00;;;;;;;11.10;35.60;101289.91;5027611;28;20080;-69
2023/03/28 11:24:05;;;;;;;0.00;0.00;;;;;;;11.21;35.18;101288.06;5027615;28;20091;-69
2023/03/28 11:27:04;;;;;;;0.17;0.00;;;;;;;11.23;31.54;101278.31;5026259;28;20034;-68
2023/03/28 11:29:44;;;;;;;0.22;0.00;;;;;;;11.28;35.72;101276.16;5028577;28;20021;-69
2023/03/28 11:32:23;;;;;;;0.10;0.00;;;;;;;11.27;35.19;101291.94;5024451;28;20037;-69
2023/03/28 11:34:57;;;;;;;0.10;0.00;;;;;;;11.15;33.46;101288.56;5025846;28;20132;-69
2023/03/28 11:37:52;;;;;;;0.20;0.00;;;;;;;11.20;36.47;101275.97;5021732;28;20467;-69
2023/03/28 11:40:24;;;;;;;0.28;0.00;;;;;;;11.24;37.20;101271.31;5016579;28;20044;-69
2023/03/28 11:42:56;;;;;;;0.70;0.10;;;;;;;11.35;35.13;101270.38;5030554;28;20542;-71
2023/03/28 11:45:33;;;;;;;0.32;0.00;;;;;;;11.45;31.47;101274.69;5022088;28;20389;-72
2023/03/28 11:48:07;;;;;;;0.20;0.00;;;;;;;11.58;32.75;101277.09;5022045;28;20506;-72